Time;durP1;ratioP1;P1;durP2;ratioP2;P2;SDS_P1;SDS_P2;PMS_P1;PMS_P2;Temp;Humidity;BMP_temperature;BMP_pressure;BME280_temperature;BME280_humidity;BME280_pressure;Samples;Min_cycle;Max_cycle;Signal;HPM_P1;HPM_P2
2023/12/24 00:01:12;;;;;;;7.88;4.30;;;;;;;4.00;100.00;96315.47;5031944;28;20131;-66
2023/12/24 00:03:38;;;;;;;4.82;3.85;;;;;;;3.97;100.00;96315.06;5015363;28;20090;-67
2023/12/24 00:06:07;;;;;;;6.20;4.35;;;;;;;3.93;100.00;96325.16;5015300;28;20094;-67
2023/12/24 00:08:35;;;;;;;7.17;4.13;;;;;;;3.91;100.00;96331.59;5032205;28;20278;-67
2023/12/24 00:11:01;;;;;;;5.28;3.90;;;;;;;3.88;100.00;96309.19;5031728;28;20103;-67
2023/12/24 00:13:27;;;;;;;4.83;3.70;;;;;;;3.88;100.00;96321.50;5000910;28;20045;-67
2023/12/24 00:15:52;;;;;;;8.97;3.90;;;;;;;3.89;100.00;96323.13;5017797;28;20494;-67
2023/12/24 00:18:19;;;;;;;5.20;3.70;;;;;;;3.85;100.00;96322.72;5017562;28;20529;-67
2023/12/24 00:20:45;;;;;;;5.37;3.57;;;;;;;3.85;100.00;96321.88;5033984;28;20045;-67
2023/12/24 00:23:11;;;;;;;6.67;4.40;;;;;;;3.84;100.00;96315.03;5017461;28;20041;-67
2023/12/24 00:25:38;;;;;;;5.90;4.07;;;;;;;3.82;100.00;96312.59;5017274;28;20052;-67
2023/12/24 00:28:05;;;;;;;5.97;4.30;;;;;;;3.76;100.00;96320.44;5017649;28;20045;-67
2023/12/24 00:30:31;;;;;;;9.40;5.40;;;;;;;3.68;100.00;96310.13;5033002;28;20087;-67
2023/12/24 00:32:58;;;;;;;5.85;4.25;;;;;;;3.69;100.00;96304.66;5016726;28;20136;-68
2023/12/24 00:35:25;;;;;;;6.72;4.60;;;;;;;3.64;100.00;96311.53;5000090;28;20095;-67
2023/12/24 00:37:52;;;;;;;8.83;4.90;;;;;;;3.57;100.00;96308.88;5032600;28;20383;-66
2023/12/24 00:40:18;;;;;;;8.60;5.30;;;;;;;3.56;100.00;96309.06;4999921;28;20045;-66
2023/12/24 00:42:46;;;;;;;9.60;5.63;;;;;;;3.52;100.00;96311.28;4988462;28;20145;-67
2023/12/24 00:45:12;;;;;;;7.53;4.33;;;;;;;3.54;100.00;96313.72;4999932;28;20049;-66
2023/12/24 00:47:39;;;;;;;7.60;4.47;;;;;;;3.54;100.00;96308.47;5016018;28;20132;-67
2023/12/24 00:50:07;;;;;;;6.90;4.33;;;;;;;3.56;100.00;96304.63;5016186;28;20059;-68
2023/12/24 00:52:37;;;;;;;7.83;4.60;;;;;;;3.51;100.00;96306.25;4983349;28;20124;-68
2023/12/24 00:55:04;;;;;;;7.33;3.93;;;;;;;3.53;100.00;96306.84;5015641;28;20037;-68
2023/12/24 00:57:32;;;;;;;5.40;3.67;;;;;;;3.47;100.00;96298.72;5016082;28;20059;-67
2023/12/24 00:59:58;;;;;;;5.50;4.10;;;;;;;3.51;100.00;96303.63;5008559;28;20480;-68
2023/12/24 01:02:24;;;;;;;8.53;5.07;;;;;;;3.48;100.00;96295.13;4975720;28;20081;-68
2023/12/24 01:04:49;;;;;;;5.50;4.00;;;;;;;3.47;100.00;96296.09;4975479;28;20058;-68
2023/12/24 01:07:16;;;;;;;8.10;5.73;;;;;;;3.51;100.00;96293.91;4977483;28;20136;-68
2023/12/24 01:09:42;;;;;;;7.30;4.63;;;;;;;3.39;100.00;96282.38;4979038;28;20030;-68
2023/12/24 01:12:08;;;;;;;7.10;4.80;;;;;;;3.37;100.00;96279.94;4978938;28;20104;-68
2023/12/24 01:14:34;;;;;;;7.10;4.47;;;;;;;3.40;100.00;96278.72;4979449;28;20042;-66
2023/12/24 01:17:00;;;;;;;5.77;4.20;;;;;;;3.38;100.00;96273.69;4980161;28;20511;-67
2023/12/24 01:19:28;;;;;;;7.03;4.67;;;;;;;3.46;100.00;96273.50;4979132;28;20038;-67
2023/12/24 01:21:56;;;;;;;7.90;4.80;;;;;;;3.38;100.00;96272.88;4977417;28;20140;-66
2023/12/24 01:24:22;;;;;;;8.83;4.93;;;;;;;3.35;100.00;96273.28;4977757;28;20053;-66
2023/12/24 01:26:48;;;;;;;7.37;4.73;;;;;;;3.38;100.00;96268.44;4977546;28;20159;-66
2023/12/24 01:29:14;;;;;;;5.20;4.17;;;;;;;3.41;100.00;96262.78;4977292;28;20136;-67
2023/12/24 01:31:40;;;;;;;5.93;3.97;;;;;;;3.44;100.00;96262.41;4961292;28;20492;-67
2023/12/24 01:34:06;;;;;;;8.10;4.93;;;;;;;3.39;100.00;96261.38;4977800;28;20046;-68
2023/12/24 01:36:33;;;;;;;11.77;5.83;;;;;;;3.33;100.00;96255.13;4985271;28;20130;-67
2023/12/24 01:38:59;;;;;;;13.37;5.93;;;;;;;3.32;100.00;96258.72;5036703;28;20463;-68
2023/12/24 01:41:25;;;;;;;8.17;4.90;;;;;;;3.32;100.00;96263.19;5020099;28;20497;-67
2023/12/24 01:43:52;;;;;;;8.40;5.10;;;;;;;3.31;100.00;96258.91;5036223;28;20095;-66
2023/12/24 01:46:23;;;;;;;7.07;4.70;;;;;;;3.41;100.00;96262.00;5036490;28;20072;-67
2023/12/24 01:48:50;;;;;;;5.83;4.50;;;;;;;3.36;100.00;96267.84;5020218;28;20456;-67
2023/12/24 01:51:18;;;;;;;10.37;5.47;;;;;;;3.35;100.00;96268.03;5019892;28;20040;-67
2023/12/24 01:53:44;;;;;;;8.73;5.03;;;;;;;3.32;100.00;96263.97;5036125;28;20059;-67
2023/12/24 01:56:11;;;;;;;6.50;4.87;;;;;;;3.28;100.00;96268.00;5019954;28;20048;-67
2023/12/24 01:58:37;;;;;;;5.87;4.37;;;;;;;3.29;100.00;96274.06;5052755;28;20036;-67
2023/12/24 02:01:03;;;;;;;7.07;4.40;;;;;;;3.28;100.00;96272.44;5019636;28;20142;-67
2023/12/24 02:03:29;;;;;;;7.32;5.40;;;;;;;3.26;100.00;96272.63;5020044;28;20133;-67
2023/12/24 02:05:55;;;;;;;6.40;4.80;;;;;;;3.25;100.00;96272.81;5019726;28;20553;-67
2023/12/24 02:08:21;;;;;;;8.10;4.93;;;;;;;3.25;100.00;96270.19;5019789;28;20051;-67
2023/12/24 02:10:50;;;;;;;8.93;5.00;;;;;;;3.31;100.00;96267.59;5035923;28;20041;-67
2023/12/24 02:13:17;;;;;;;9.83;5.00;;;;;;;3.25;100.00;96273.63;5003154;28;20040;-67
2023/12/24 02:15:44;;;;;;;12.20;5.77;;;;;;;3.24;100.00;96277.25;5019407;28;20060;-66
2023/12/24 02:18:10;;;;;;;9.43;4.83;;;;;;;3.20;100.00;96276.03;5019194;28;20040;-65
2023/12/24 02:21:03;;;;;;;13.00;6.60;;;;;;;3.19;100.00;96278.84;5024887;28;20040;-66
2023/12/24 02:23:29;;;;;;;12.20;7.30;;;;;;;3.03;100.00;96282.56;5035672;28;20049;-66
2023/12/24 02:25:58;;;;;;;8.87;5.70;;;;;;;3.06;100.00;96276.94;5003140;28;20045;-66
2023/12/24 02:28:25;;;;;;;10.77;6.00;;;;;;;2.99;100.00;96270.88;5002869;28;20152;-66
2023/12/24 02:30:57;;;;;;;8.23;5.83;;;;;;;3.08;100.00;96272.34;5019113;28;20097;-66
2023/12/24 02:33:29;;;;;;;8.93;6.20;;;;;;;3.07;100.00;96275.97;5019182;28;20059;-66
2023/12/24 02:35:58;;;;;;;8.33;5.47;;;;;;;3.09;100.00;96275.78;5002523;28;20048;-67
2023/12/24 02:38:24;;;;;;;9.43;5.60;;;;;;;3.01;100.00;96281.16;5018838;28;20727;-65
2023/12/24 02:40:49;;;;;;;10.57;6.33;;;;;;;3.00;100.00;96279.53;5018868;28;20060;-65
2023/12/24 02:43:15;;;;;;;9.33;5.83;;;;;;;2.99;100.00;96272.66;5034827;28;20061;-65
2023/12/24 02:45:44;;;;;;;9.27;5.70;;;;;;;3.04;100.00;96280.78;5018711;28;20060;-65
2023/12/24 02:48:10;;;;;;;13.83;7.60;;;;;;;2.94;100.00;96275.06;5018922;28;20449;-66
2023/12/24 02:50:37;;;;;;;10.43;6.90;;;;;;;2.93;100.00;96276.06;5017436;28;20047;-66
2023/12/24 02:53:02;;;;;;;11.43;6.97;;;;;;;2.92;100.00;96280.47;5002011;28;20041;-66
2023/12/24 02:55:28;;;;;;;8.70;4.97;;;;;;;2.97;100.00;96275.47;5034978;28;20470;-66
2023/12/24 02:57:54;;;;;;;9.23;6.20;;;;;;;2.94;100.00;96275.06;5018232;28;20048;-66
2023/12/24 03:00:20;;;;;;;9.43;6.70;;;;;;;2.98;100.00;96278.94;5020602;28;20044;-66
2023/12/24 03:02:46;;;;;;;9.50;6.53;;;;;;;3.01;100.00;96275.91;5020100;28;20048;-66
2023/12/24 03:05:12;;;;;;;10.27;6.17;;;;;;;3.00;100.00;96275.09;5020683;28;20063;-66
2023/12/24 03:07:38;;;;;;;12.93;7.20;;;;;;;2.96;100.00;96281.75;5004096;28;20052;-66
2023/12/24 03:10:04;;;;;;;10.43;6.73;;;;;;;2.97;100.00;96285.16;5020594;28;20054;-66
2023/12/24 03:12:30;;;;;;;11.93;6.23;;;;;;;2.97;100.00;96291.22;5020549;28;20151;-66
2023/12/24 03:14:56;;;;;;;10.00;5.97;;;;;;;3.00;100.00;96292.63;5004109;28;20159;-66
2023/12/24 03:17:33;;;;;;;9.23;6.10;;;;;;;3.03;100.00;96300.91;5004352;28;20053;-67
2023/12/24 03:20:00;;;;;;;10.37;6.37;;;;;;;2.89;100.00;96301.03;5021502;28;20106;-66
2023/12/24 03:22:27;;;;;;;12.13;7.27;;;;;;;2.86;100.00;96301.44;5020511;28;20048;-66
2023/12/24 03:24:53;;;;;;;10.93;6.97;;;;;;;2.77;100.00;96298.13;5020139;28;20045;-67
2023/12/24 03:27:19;;;;;;;9.03;6.70;;;;;;;2.85;100.00;96308.47;5053069;28;20053;-67
2023/12/24 03:29:44;;;;;;;9.07;6.23;;;;;;;2.84;100.00;96306.88;5035998;28;20040;-66
2023/12/24 03:32:10;;;;;;;12.03;7.20;;;;;;;2.85;100.00;96308.47;5003718;28;20490;-67
2023/12/24 03:34:36;;;;;;;10.53;6.67;;;;;;;2.88;100.00;96309.88;5035617;28;20048;-66
2023/12/24 03:37:02;;;;;;;11.77;6.83;;;;;;;2.89;100.00;96309.69;5040600;28;20487;-66
2023/12/24 03:39:28;;;;;;;11.37;7.97;;;;;;;2.84;100.00;96321.75;5057724;28;20393;-66
2023/12/24 03:41:54;;;;;;;13.17;8.23;;;;;;;2.87;100.00;96314.34;5040668;28;20044;-66
2023/12/24 03:44:19;;;;;;;11.30;6.73;;;;;;;2.93;100.00;96318.81;5057071;28;20055;-66
2023/12/24 03:46:45;;;;;;;14.93;8.53;;;;;;;2.86;100.00;96310.06;5035956;28;20049;-66
2023/12/24 03:49:11;;;;;;;13.70;7.63;;;;;;;2.87;100.00;96311.72;5019862;28;20051;-67
2023/12/24 03:51:37;;;;;;;12.47;7.30;;;;;;;2.89;100.00;96307.06;5003550;28;20052;-67
2023/12/24 03:54:03;;;;;;;11.30;7.20;;;;;;;2.97;100.00;96311.34;5003746;28;20040;-66
2023/12/24 03:56:29;;;;;;;16.83;8.07;;;;;;;2.91;100.00;96318.19;5019843;28;20056;-66
2023/12/24 03:58:55;;;;;;;14.13;8.50;;;;;;;2.93;100.00;96318.81;5003217;28;20044;-66
2023/12/24 04:01:26;;;;;;;16.13;7.83;;;;;;;3.01;100.00;96318.63;5019466;28;20059;-66
2023/12/24 04:03:53;;;;;;;13.53;7.50;;;;;;;2.97;100.00;96317.41;5019187;28;20102;-66
2023/12/24 04:06:19;;;;;;;11.03;7.57;;;;;;;2.98;100.00;96320.84;5003055;28;20072;-67
2023/12/24 04:08:45;;;;;;;14.07;8.50;;;;;;;2.84;100.00;96322.59;5003071;28;20047;-67
2023/12/24 04:11:15;;;;;;;16.00;8.57;;;;;;;2.74;100.00;96321.25;5003600;28;20151;-67
2023/12/24 04:13:42;;;;;;;17.00;9.32;;;;;;;2.59;100.00;96313.50;5003010;28;20044;-67
2023/12/24 04:16:08;;;;;;;16.27;8.57;;;;;;;2.71;100.00;96313.78;5003140;28;20044;-66
2023/12/24 04:18:34;;;;;;;19.23;9.20;;;;;;;2.73;100.00;96306.56;5034241;28;20052;-65
2023/12/24 04:21:00;;;;;;;19.50;9.57;;;;;;;2.67;100.00;96316.00;5040396;28;20042;-65
2023/12/24 04:23:26;;;;;;;19.10;8.67;;;;;;;2.76;100.00;96316.66;5040399;28;20040;-65
2023/12/24 04:25:52;;;;;;;14.37;9.00;;;;;;;2.81;100.00;96320.34;5056819;28;20044;-65
2023/12/24 04:28:17;;;;;;;16.63;8.57;;;;;;;2.79;100.00;96324.97;5040268;28;20044;-66
2023/12/24 04:30:43;;;;;;;14.50;7.93;;;;;;;2.67;100.00;96326.47;5040188;28;20051;-66
2023/12/24 04:33:10;;;;;;;14.60;8.23;;;;;;;2.69;100.00;96319.22;5040518;28;20131;-66
2023/12/24 04:35:36;;;;;;;15.43;8.30;;;;;;;2.59;100.00;96325.78;5040439;28;20112;-66
2023/12/24 04:38:02;;;;;;;13.57;7.87;;;;;;;2.69;100.00;96328.91;5040050;28;20055;-66
2023/12/24 04:40:28;;;;;;;12.23;8.10;;;;;;;2.70;100.00;96331.34;5056811;28;20155;-65
2023/12/24 04:42:54;;;;;;;13.27;8.10;;;;;;;2.69;100.00;96332.31;5059493;28;20142;-65
2023/12/24 04:45:21;;;;;;;15.77;9.07;;;;;;;2.60;100.00;96338.69;5060759;28;20036;-65
2023/12/24 04:47:48;;;;;;;12.93;7.83;;;;;;;2.67;100.00;96334.34;5043875;28;20377;-65
2023/12/24 04:50:14;;;;;;;13.07;7.37;;;;;;;2.72;100.00;96334.56;5060581;28;20068;-66
2023/12/24 04:52:41;;;;;;;16.53;8.43;;;;;;;2.74;100.00;96342.22;5044258;28;20485;-66
2023/12/24 04:55:08;;;;;;;11.07;7.50;;;;;;;2.53;100.00;96339.63;5060421;28;20064;-66
2023/12/24 04:57:36;;;;;;;11.67;7.83;;;;;;;2.57;100.00;96340.91;5060447;28;20054;-66
2023/12/24 05:00:05;;;;;;;13.13;7.57;;;;;;;2.65;100.00;96338.13;5060173;28;20101;-66
2023/12/24 05:02:33;;;;;;;11.93;8.50;;;;;;;2.57;100.00;96339.06;5060493;28;20046;-66
2023/12/24 05:05:01;;;;;;;11.40;6.83;;;;;;;2.66;100.00;96337.94;5043262;28;20071;-67
2023/12/24 05:07:29;;;;;;;12.43;7.10;;;;;;;2.65;100.00;96343.38;5077237;28;20044;-66
2023/12/24 05:09:55;;;;;;;11.07;6.83;;;;;;;2.67;100.00;96350.06;5043817;28;20290;-66
2023/12/24 05:12:21;;;;;;;13.40;7.67;;;;;;;2.52;100.00;96348.50;5076759;28;20047;-67
2023/12/24 05:14:47;;;;;;;14.17;8.23;;;;;;;2.53;100.00;96350.94;5043619;28;20056;-67
2023/12/24 05:17:14;;;;;;;13.27;7.20;;;;;;;2.58;100.00;96347.75;5043898;28;20101;-67
2023/12/24 05:19:40;;;;;;;9.30;6.20;;;;;;;2.60;100.00;96351.00;5043842;28;20134;-66
2023/12/24 05:22:06;;;;;;;13.00;7.57;;;;;;;2.54;100.00;96357.78;5059807;28;20557;-66
2023/12/24 05:24:31;;;;;;;18.73;9.90;;;;;;;2.24;100.00;96358.91;5043108;28;20048;-66
2023/12/24 05:26:58;;;;;;;11.67;7.30;;;;;;;2.34;100.00;96359.41;5059838;28;20040;-66
2023/12/24 05:29:24;;;;;;;14.93;8.50;;;;;;;2.40;100.00;96365.72;5059889;28;20051;-66
2023/12/24 05:31:50;;;;;;;12.13;7.50;;;;;;;2.42;100.00;96368.94;5059967;28;20058;-67
2023/12/24 05:34:16;;;;;;;11.03;6.20;;;;;;;2.48;100.00;96368.19;5059593;28;20040;-66
2023/12/24 05:36:42;;;;;;;12.97;8.03;;;;;;;2.44;100.00;96365.16;5042898;28;20043;-66
2023/12/24 05:39:11;;;;;;;11.27;6.87;;;;;;;2.49;100.00;96373.25;5058554;28;20385;-66
2023/12/24 05:41:40;;;;;;;13.93;7.03;;;;;;;2.29;100.00;96377.47;5059352;28;20064;-66
2023/12/24 05:44:07;;;;;;;9.67;6.93;;;;;;;2.13;100.00;96382.94;5054948;28;20179;-66
2023/12/24 05:46:33;;;;;;;11.93;6.53;;;;;;;2.26;100.00;96390.13;5037988;28;20056;-66
2023/12/24 05:49:02;;;;;;;11.53;6.90;;;;;;;2.31;100.00;96380.72;5038109;28;20502;-66
2023/12/24 05:51:28;;;;;;;10.13;6.30;;;;;;;2.31;100.00;96393.00;5021540;28;20048;-66
2023/12/24 05:53:53;;;;;;;9.47;6.00;;;;;;;2.33;100.00;96380.53;5004993;28;20501;-66
2023/12/24 05:56:19;;;;;;;10.47;6.50;;;;;;;2.47;100.00;96395.38;5021565;28;20060;-66
2023/12/24 05:58:48;;;;;;;9.03;6.40;;;;;;;2.47;100.00;96400.63;5005392;28;20032;-66
2023/12/24 06:01:14;;;;;;;8.50;5.83;;;;;;;2.39;100.00;96406.78;4982417;28;20423;-65
2023/12/24 06:03:40;;;;;;;11.37;6.57;;;;;;;2.30;100.00;96405.28;4982190;28;20068;-65
2023/12/24 06:06:06;;;;;;;11.70;6.63;;;;;;;2.31;100.00;96406.06;4998572;28;20056;-66
2023/12/24 06:08:32;;;;;;;10.47;6.10;;;;;;;2.31;100.00;96408.69;4978839;28;20045;-66
2023/12/24 06:10:59;;;;;;;12.40;6.73;;;;;;;2.17;100.00;96405.13;4995022;28;20201;-67
2023/12/24 06:13:25;;;;;;;10.20;6.90;;;;;;;2.13;100.00;96416.97;4946653;28;20510;-66
2023/12/24 06:15:50;;;;;;;9.43;6.20;;;;;;;2.20;100.00;96410.00;4946549;28;20057;-67
2023/12/24 06:18:16;;;;;;;11.37;6.47;;;;;;;2.06;100.00;96410.84;4946820;28;20054;-67
2023/12/24 06:20:43;;;;;;;10.73;6.43;;;;;;;2.13;100.00;96406.50;4963194;28;20151;-66
2023/12/24 06:23:08;;;;;;;12.20;6.87;;;;;;;2.15;100.00;96416.78;4978474;28;20065;-67
2023/12/24 06:25:35;;;;;;;9.80;6.10;;;;;;;2.30;100.00;96414.94;4962323;28;20066;-65
2023/12/24 06:28:00;;;;;;;10.00;6.20;;;;;;;2.24;100.00;96411.25;4933966;28;20802;-63
2023/12/24 06:30:26;;;;;;;10.90;6.27;;;;;;;2.41;100.00;96419.69;4981229;28;20178;-66
2023/12/24 06:32:55;;;;;;;10.60;6.17;;;;;;;2.35;100.00;96423.06;4936324;28;20046;-67
2023/12/24 06:35:22;;;;;;;10.37;6.57;;;;;;;2.29;100.00;96421.19;4972923;28;20049;-65
2023/12/24 06:37:48;;;;;;;8.33;5.50;;;;;;;2.40;100.00;96425.94;4968735;28;20201;-65
2023/12/24 06:40:14;;;;;;;10.30;6.00;;;;;;;2.41;100.00;96431.00;4985337;28;20053;-65
2023/12/24 06:42:40;;;;;;;9.70;6.00;;;;;;;2.42;100.00;96426.53;5020677;28;20052;-64
2023/12/24 06:45:06;;;;;;;17.00;6.90;;;;;;;2.38;100.00;96435.78;5046368;28;20390;-71
2023/12/24 06:47:32;;;;;;;8.60;6.47;;;;;;;2.29;100.00;96448.16;5013467;28;20036;-70
2023/12/24 06:49:58;;;;;;;8.60;6.23;;;;;;;2.17;100.00;96436.53;5026971;28;20040;-70
2023/12/24 06:52:24;;;;;;;9.27;5.73;;;;;;;2.31;100.00;96440.94;5013372;28;20060;-68
2023/12/24 06:54:51;;;;;;;9.47;6.03;;;;;;;2.33;100.00;96436.34;5029504;28;20044;-70
2023/12/24 06:57:19;;;;;;;9.50;5.90;;;;;;;2.30;100.00;96431.47;5030650;28;20367;-70
2023/12/24 06:59:45;;;;;;;12.03;6.67;;;;;;;2.04;100.00;96453.91;5029810;28;20037;-70
2023/12/24 07:02:11;;;;;;;10.53;6.70;;;;;;;2.13;100.00;96443.16;5045891;28;20064;-69
2023/12/24 07:04:37;;;;;;;10.03;6.43;;;;;;;2.10;100.00;96446.13;5058856;28;20102;-70
2023/12/24 07:07:03;;;;;;;9.90;6.20;;;;;;;2.04;100.00;96446.88;5010713;28;20451;-72
2023/12/24 07:09:30;;;;;;;9.77;6.43;;;;;;;2.22;100.00;96459.53;5018945;28;20075;-70
2023/12/24 07:12:01;;;;;;;11.17;5.80;;;;;;;2.26;100.00;96455.59;5059800;28;20040;-66
2023/12/24 07:14:27;;;;;;;11.67;6.93;;;;;;;2.33;100.00;96457.28;5026653;28;20056;-67
2023/12/24 07:16:52;;;;;;;11.10;7.37;;;;;;;2.36;100.00;96463.94;5029713;28;20140;-66
2023/12/24 07:19:18;;;;;;;8.60;5.50;;;;;;;2.53;100.00;96460.94;5019144;28;20044;-67
2023/12/24 07:21:44;;;;;;;11.27;6.43;;;;;;;2.44;100.00;96464.66;5019913;28;20114;-66
2023/12/24 07:24:11;;;;;;;11.20;7.10;;;;;;;2.32;100.00;96467.94;5008631;28;20053;-70
2023/12/24 07:26:37;;;;;;;10.03;6.73;;;;;;;2.37;100.00;96471.59;5021220;28;20063;-68
2023/12/24 07:29:03;;;;;;;11.73;6.60;;;;;;;2.23;100.00;96463.81;5021974;28;20494;-68
2023/12/24 07:31:30;;;;;;;10.73;6.20;;;;;;;2.38;100.00;96470.63;4997270;28;20060;-69
2023/12/24 07:33:56;;;;;;;9.00;5.83;;;;;;;2.51;100.00;96469.94;4988416;28;20496;-69
2023/12/24 07:36:22;;;;;;;9.03;6.07;;;;;;;2.43;100.00;96486.59;4996864;28;20132;-69
2023/12/24 07:38:49;;;;;;;9.67;5.20;;;;;;;2.54;100.00;96482.66;4965081;28;20056;-68
2023/12/24 07:41:15;;;;;;;10.47;6.63;;;;;;;2.38;100.00;96475.88;5009894;28;20054;-70
2023/12/24 07:43:41;;;;;;;8.97;6.00;;;;;;;2.34;100.00;96474.59;4987668;28;20057;-70
2023/12/24 07:46:08;;;;;;;12.60;7.20;;;;;;;2.39;100.00;96481.91;4961340;28;20196;-68
2023/12/24 07:48:34;;;;;;;9.00;6.07;;;;;;;2.47;100.00;96476.56;4993641;28;20050;-68
2023/12/24 07:51:00;;;;;;;8.33;5.57;;;;;;;2.60;100.00;96476.72;4960895;28;20061;-68
2023/12/24 07:53:26;;;;;;;11.00;6.20;;;;;;;2.66;100.00;96481.22;4977512;28;20060;-70
2023/12/24 07:55:52;;;;;;;10.03;6.37;;;;;;;2.51;100.00;96476.00;4977945;28;20052;-68
2023/12/24 07:58:17;;;;;;;9.43;6.47;;;;;;;2.57;100.00;96483.13;4958225;28;20054;-67
2023/12/24 08:00:43;;;;;;;10.60;5.50;;;;;;;2.53;100.00;96475.81;4973967;28;20468;-73
2023/12/24 08:03:09;;;;;;;10.03;6.47;;;;;;;2.41;100.00;96485.97;4935407;29;20048;-70
2023/12/24 08:05:35;;;;;;;10.93;6.53;;;;;;;2.40;100.00;96481.72;4919620;29;20051;-70
2023/12/24 08:08:02;;;;;;;12.10;5.80;;;;;;;2.54;100.00;96478.25;4920692;28;20109;-70
2023/12/24 08:10:27;;;;;;;8.27;5.53;;;;;;;2.76;100.00;96482.53;4922376;28;20132;-71
2023/12/24 08:13:12;;;;;;;6.57;4.70;;;;;;;2.84;100.00;96473.72;4944079;28;20546;-68
2023/12/24 08:15:37;;;;;;;9.17;5.10;;;;;;;2.87;100.00;96481.22;4901938;28;20907;-69
2023/12/24 08:18:05;;;;;;;7.20;4.50;;;;;;;2.97;100.00;96479.91;4921253;28;20118;-70
2023/12/24 08:20:32;;;;;;;6.20;4.77;;;;;;;2.98;100.00;96481.50;4912126;28;20542;-70
2023/12/24 08:23:04;;;;;;;8.90;5.27;;;;;;;2.79;100.00;96491.81;4938213;28;20046;-72
2023/12/24 08:25:30;;;;;;;7.93;5.13;;;;;;;2.71;100.00;96490.13;4896934;28;20069;-71
2023/12/24 08:28:06;;;;;;;9.23;5.13;;;;;;;2.69;100.00;96484.25;4937193;28;20077;-74
2023/12/24 08:30:33;;;;;;;7.13;4.27;;;;;;;2.79;100.00;96486.56;4969947;28;20186;-72
2023/12/24 08:33:00;;;;;;;5.83;4.60;;;;;;;2.91;100.00;96480.66;4917627;28;20059;-71
2023/12/24 08:35:25;;;;;;;6.40;5.10;;;;;;;2.70;100.00;96491.13;4947899;28;20066;-74
2023/12/24 08:37:51;;;;;;;7.83;5.00;;;;;;;2.64;100.00;96483.19;4968706;28;20047;-71
2023/12/24 08:40:18;;;;;;;6.10;4.87;;;;;;;2.77;100.00;96494.63;4951246;28;20317;-72
2023/12/24 08:42:45;;;;;;;6.77;4.80;;;;;;;2.91;100.00;96485.91;4943976;28;20058;-71
2023/12/24 08:45:12;;;;;;;7.20;4.50;;;;;;;2.93;100.00;96481.28;4962342;28;20352;-73
2023/12/24 08:47:43;;;;;;;7.13;4.90;;;;;;;2.82;100.00;96481.78;4981006;28;20193;-74
2023/12/24 08:50:09;;;;;;;7.97;5.40;;;;;;;2.71;100.00;96492.75;4979896;28;20046;-76
2023/12/24 08:52:39;;;;;;;7.40;5.20;;;;;;;2.93;100.00;96491.78;4969965;28;20053;-73
2023/12/24 08:55:30;;;;;;;6.93;4.75;;;;;;;3.33;100.00;96501.63;4975030;28;20051;-72
2023/12/24 08:57:59;;;;;;;7.13;4.80;;;;;;;3.58;100.00;96515.13;4948882;28;20064;-72
2023/12/24 09:00:25;;;;;;;9.10;4.60;;;;;;;3.71;100.00;96515.22;4980009;28;20077;-73
2023/12/24 09:02:52;;;;;;;6.77;4.40;;;;;;;3.76;100.00;96530.38;4980966;28;20148;-70
2023/12/24 09:05:19;;;;;;;7.40;4.50;;;;;;;3.90;100.00;96535.53;5015001;28;20144;-76
2023/12/24 09:07:45;;;;;;;6.57;4.22;;;;;;;3.88;100.00;96528.84;5002352;28;20145;-72
2023/12/24 09:10:15;;;;;;;8.30;4.93;;;;;;;3.83;100.00;96531.25;5018241;28;20044;-72
2023/12/24 09:12:43;;;;;;;6.60;4.57;;;;;;;4.11;100.00;96539.88;5000484;28;20190;-72
2023/12/24 09:15:14;;;;;;;5.20;4.20;;;;;;;4.40;100.00;96537.03;4993257;28;20061;-72
2023/12/24 09:17:47;;;;;;;5.85;4.68;;;;;;;4.62;100.00;96546.44;4992274;28;20042;-72
2023/12/24 09:20:20;;;;;;;6.72;4.25;;;;;;;4.86;100.00;96546.72;4940749;28;20514;-72
2023/12/24 09:22:57;;;;;;;4.63;3.90;;;;;;;4.69;100.00;96548.06;4975765;28;20047;-73
2023/12/24 09:25:31;;;;;;;4.82;3.42;;;;;;;4.35;100.00;96542.06;4973514;28;20066;-74
2023/12/24 09:28:03;;;;;;;3.95;3.30;;;;;;;4.29;100.00;96550.72;4938790;28;20080;-72
2023/12/24 09:30:30;;;;;;;5.45;3.95;;;;;;;3.97;100.00;96564.44;4939934;28;20484;-73
2023/12/24 09:32:57;;;;;;;4.75;3.60;;;;;;;4.18;100.00;96559.94;4971221;28;20061;-73
2023/12/24 09:35:35;;;;;;;5.13;3.83;;;;;;;4.17;100.00;96566.19;4969295;28;20053;-75
2023/12/24 09:38:40;;;;;;;4.88;3.85;;;;;;;4.21;100.00;96562.19;4948045;28;20077;-72
2023/12/24 09:41:13;;;;;;;4.43;3.60;;;;;;;4.13;100.00;96572.03;4877145;29;20052;-73
2023/12/24 09:43:46;;;;;;;5.93;4.15;;;;;;;3.77;100.00;96582.66;4910713;29;20071;-73
2023/12/24 09:46:17;;;;;;;5.15;4.22;;;;;;;3.76;100.00;96570.56;4879149;29;20059;-71
2023/12/24 09:48:44;;;;;;;5.10;3.90;;;;;;;3.60;100.00;96559.53;4904707;29;20051;-71
2023/12/24 09:51:11;;;;;;;5.93;3.67;;;;;;;3.46;100.00;96556.78;4909745;28;20525;-71
2023/12/24 09:53:37;;;;;;;8.13;4.00;;;;;;;3.25;100.00;96569.91;4943148;28;21531;-72
2023/12/24 09:56:04;;;;;;;5.13;4.20;;;;;;;3.23;100.00;96569.28;4939412;28;20045;-73
2023/12/24 09:58:30;;;;;;;4.23;3.63;;;;;;;3.23;100.00;96563.22;4923098;28;20058;-72
2023/12/24 10:00:57;;;;;;;4.20;3.80;;;;;;;3.24;100.00;96564.84;4938938;28;20046;-72
2023/12/24 10:03:24;;;;;;;4.37;3.70;;;;;;;3.39;100.00;96562.97;4937735;28;20050;-71
2023/12/24 10:06:04;;;;;;;5.77;4.00;;;;;;;3.15;100.00;96572.00;4929811;28;20145;-71
2023/12/24 10:08:41;;;;;;;5.87;3.47;;;;;;;3.04;100.00;96585.63;4920695;29;20569;-70
2023/12/24 10:11:12;;;;;;;4.93;3.47;;;;;;;2.99;100.00;96567.03;4947868;28;20047;-71
2023/12/24 10:13:38;;;;;;;4.20;3.50;;;;;;;2.72;100.00;96570.34;4927461;28;20071;-74
2023/12/24 10:16:07;;;;;;;4.53;3.60;;;;;;;2.77;100.00;96580.25;4910801;29;20074;-72
2023/12/24 10:18:33;;;;;;;6.03;3.33;;;;;;;2.86;100.00;96585.22;4886818;29;20057;-78
2023/12/24 10:21:08;;;;;;;5.93;3.40;;;;;;;3.17;100.00;96590.19;4886082;29;20060;-74
2023/12/24 10:23:34;;;;;;;3.83;3.20;;;;;;;3.26;100.00;96597.75;4885317;29;20758;-73
2023/12/24 10:26:08;;;;;;;4.13;2.90;;;;;;;3.40;100.00;96596.88;4888924;29;20166;-72
2023/12/24 10:28:51;;;;;;;4.00;3.60;;;;;;;3.41;100.00;96608.19;4952321;28;20053;-70
2023/12/24 10:31:18;;;;;;;4.30;3.83;;;;;;;3.20;100.00;96605.53;4921399;28;20124;-72
2023/12/24 10:33:45;;;;;;;4.47;3.63;;;;;;;3.26;100.00;96605.63;4937070;28;20054;-72
2023/12/24 10:36:15;;;;;;;5.33;3.70;;;;;;;3.05;100.00;96620.50;4952350;28;20527;-69
2023/12/24 10:38:42;;;;;;;4.17;3.67;;;;;;;2.97;100.00;96624.06;4921417;28;20078;-69
2023/12/24 10:41:11;;;;;;;6.00;3.70;;;;;;;2.80;100.00;96614.78;4921872;28;20102;-71
2023/12/24 10:43:38;;;;;;;5.00;3.53;;;;;;;2.81;100.00;96619.03;4917527;28;20062;-69
2023/12/24 10:46:04;;;;;;;4.70;3.50;;;;;;;2.73;100.00;96618.31;4937028;28;20078;-72
2023/12/24 10:48:32;;;;;;;5.33;4.00;;;;;;;2.76;100.00;96618.75;4916959;29;20059;-75
2023/12/24 10:50:59;;;;;;;5.40;3.57;;;;;;;2.81;100.00;96621.66;4932413;29;20461;-76
2023/12/24 10:53:33;;;;;;;6.82;4.57;;;;;;;2.73;100.00;96613.88;4934547;28;20054;-73
2023/12/24 10:56:04;;;;;;;6.67;4.47;;;;;;;2.76;100.00;96616.16;4909737;29;20055;-70
2023/12/24 10:58:37;;;;;;;5.25;4.13;;;;;;;2.78;100.00;96616.75;4918077;29;20051;-70
2023/12/24 11:01:10;;;;;;;6.20;4.20;;;;;;;2.74;100.00;96620.75;4917165;29;20059;-71
2023/12/24 11:03:52;;;;;;;8.97;4.30;;;;;;;2.83;100.00;96619.66;4902333;29;20054;-71
2023/12/24 11:06:37;;;;;;;5.70;4.33;;;;;;;2.73;100.00;96624.38;4887497;29;20683;-76
2023/12/24 11:09:26;;;;;;;4.93;3.70;;;;;;;2.93;100.00;96625.44;4888368;29;20056;-75
2023/12/24 11:11:54;;;;;;;4.33;3.20;;;;;;;3.06;100.00;96636.06;4872956;29;20052;-76
2023/12/24 11:14:41;;;;;;;3.08;2.67;;;;;;;3.29;100.00;96626.22;4886946;29;20076;-76
2023/12/24 11:17:08;;;;;;;4.60;3.00;;;;;;;3.12;100.00;96621.41;4898593;29;20055;-75
2023/12/24 11:19:37;;;;;;;5.13;3.20;;;;;;;3.24;100.00;96639.06;4908109;29;20060;-75
2023/12/24 11:22:06;;;;;;;5.93;3.40;;;;;;;3.22;100.00;96638.47;4898057;29;20162;-75
2023/12/24 11:24:33;;;;;;;4.03;2.83;;;;;;;3.33;100.00;96640.59;4922705;28;20055;-75
2023/12/24 11:26:59;;;;;;;4.03;3.20;;;;;;;3.45;100.00;96654.03;4911149;29;20463;-75
2023/12/24 11:29:48;;;;;;;4.70;3.67;;;;;;;3.46;100.00;96659.09;4910965;29;20062;-75
2023/12/24 11:32:29;;;;;;;5.47;4.07;;;;;;;3.44;100.00;96660.28;4913088;29;20048;-75